createdAt,value
2023-01-13T00:01:11.333Z,10.30
2023-01-13T00:03:38.484Z,10.20
2023-01-13T00:06:06.604Z,10.20
2023-01-13T00:08:34.109Z,10.20
2023-01-13T00:11:01.008Z,10.20
2023-01-13T00:13:28.440Z,10.20
2023-01-13T00:15:59.161Z,10.20
2023-01-13T00:18:26.523Z,10.20
2023-01-13T00:21:05.724Z,10.20
2023-01-13T00:23:34.503Z,10.20
2023-01-13T00:26:04.658Z,10.20
2023-01-13T00:28:31.770Z,10.20
2023-01-13T00:31:06.051Z,10.20
2023-01-13T00:33:33.119Z,10.30
2023-01-13T00:36:01.444Z,10.20
2023-01-13T00:38:30.421Z,10.20
2023-01-13T00:41:08.825Z,10.20
2023-01-13T00:43:37.398Z,10.20
2023-01-13T00:46:05.925Z,10.20
2023-01-13T00:48:33.842Z,10.20
2023-01-13T00:51:03.074Z,10.20
2023-01-13T00:53:33.967Z,10.10
2023-01-13T00:56:11.387Z,10.10
2023-01-13T00:58:38.325Z,10.20
2023-01-13T01:01:07.950Z,10.10
2023-01-13T01:03:35.784Z,10.10
2023-01-13T01:06:10.597Z,10.10
2023-01-13T01:08:37.582Z,10.10
2023-01-13T01:11:12.517Z,10.10
2023-01-13T01:13:40.160Z,10.10
2023-01-13T01:16:13.316Z,10.10
2023-01-13T01:18:42.826Z,10.10
2023-01-13T01:21:10.633Z,10.00
2023-01-13T01:23:38.546Z,10.00
2023-01-13T01:26:08.858Z,10.00
2023-01-13T01:28:35.838Z,10.00
2023-01-13T01:31:07.706Z,9.90
2023-01-13T01:33:34.962Z,9.90
2023-01-13T01:36:03.315Z,9.90
2023-01-13T01:38:30.236Z,9.80
2023-01-13T01:40:57.313Z,9.80
2023-01-13T01:43:59.431Z,9.80
2023-01-13T01:46:28.176Z,9.80
2023-01-13T01:49:18.269Z,9.80
2023-01-13T01:52:02.516Z,9.70
2023-01-13T01:54:48.326Z,9.70
2023-01-13T01:57:21.739Z,9.70
2023-01-13T01:59:49.519Z,9.70
2023-01-13T02:02:16.916Z,9.70
2023-01-13T02:04:50.802Z,9.70
2023-01-13T02:07:20.850Z,9.70
2023-01-13T02:09:48.837Z,9.70
2023-01-13T02:12:34.600Z,9.70
2023-01-13T02:15:11.597Z,9.60
2023-01-13T02:18:07.257Z,9.60
2023-01-13T02:21:01.354Z,9.60
2023-01-13T02:24:04.695Z,9.60
2023-01-13T02:26:49.960Z,9.50
2023-01-13T02:30:03.814Z,9.50
2023-01-13T02:32:54.853Z,9.50
2023-01-13T02:35:48.279Z,9.40
2023-01-13T02:38:20.345Z,9.40
2023-01-13T02:41:35.680Z,9.40
2023-01-13T02:44:07.037Z,9.40
2023-01-13T02:46:49.851Z,9.40
2023-01-13T02:49:28.357Z,9.30
2023-01-13T02:52:00.296Z,9.30
2023-01-13T02:54:29.580Z,9.30
2023-01-13T02:56:59.341Z,9.30
2023-01-13T02:59:27.904Z,9.30
2023-01-13T03:01:58.031Z,9.30
2023-01-13T03:04:54.179Z,9.30
2023-01-13T03:07:45.985Z,9.30
2023-01-13T03:10:27.600Z,9.20
2023-01-13T03:13:24.360Z,9.10
2023-01-13T03:16:30.175Z,9.10
2023-01-13T03:19:24.806Z,9.00
2023-01-13T03:22:12.631Z,8.90
2023-01-13T03:24:42.036Z,8.90
2023-01-13T03:27:19.175Z,8.80
2023-01-13T03:30:01.220Z,8.80
2023-01-13T03:32:42.559Z,8.80
2023-01-13T03:35:17.976Z,8.70
2023-01-13T03:37:50.891Z,8.60
2023-01-13T03:40:25.349Z,8.60
2023-01-13T03:43:23.931Z,8.60
2023-01-13T03:45:57.307Z,8.50
2023-01-13T03:48:27.630Z,8.40
2023-01-13T03:50:59.197Z,8.30
2023-01-13T03:53:33.490Z,8.30
2023-01-13T03:56:10.889Z,8.30
2023-01-13T03:58:45.637Z,8.30
2023-01-13T04:01:37.053Z,8.20
2023-01-13T04:04:08.503Z,8.20
2023-01-13T04:06:56.674Z,8.20
2023-01-13T04:09:49.977Z,8.20
2023-01-13T04:12:55.501Z,8.20
2023-01-13T04:15:27.255Z,8.10
2023-01-13T04:17:54.929Z,8.10
2023-01-13T04:20:21.759Z,8.10
2023-01-13T04:22:48.523Z,8.10
2023-01-13T04:25:15.399Z,8.10
2023-01-13T04:27:42.196Z,8.10
2023-01-13T04:30:09.700Z,8.10
2023-01-13T04:32:36.396Z,8.10
2023-01-13T04:35:03.537Z,8.10
2023-01-13T04:37:30.322Z,8.10
2023-01-13T04:39:58.269Z,8.00
2023-01-13T04:42:25.082Z,8.10
2023-01-13T04:44:51.834Z,8.10
2023-01-13T04:47:18.656Z,8.00
2023-01-13T04:49:45.431Z,8.00
2023-01-13T04:52:12.177Z,8.00
2023-01-13T04:54:38.935Z,8.00
2023-01-13T04:57:05.727Z,8.00
2023-01-13T04:59:34.534Z,8.10
2023-01-13T05:02:02.017Z,8.10
2023-01-13T05:04:28.852Z,8.20
2023-01-13T05:06:55.695Z,8.20
2023-01-13T05:09:22.487Z,8.20
2023-01-13T05:12:07.898Z,8.20
2023-01-13T05:14:53.171Z,8.20
2023-01-13T05:17:23.520Z,8.30
2023-01-13T05:19:50.631Z,8.30
2023-01-13T05:22:36.079Z,8.30
2023-01-13T05:25:21.395Z,8.30
2023-01-13T05:27:49.035Z,8.30
2023-01-13T05:30:16.685Z,8.30
2023-01-13T05:32:43.843Z,8.30
2023-01-13T05:35:10.698Z,8.30
2023-01-13T05:37:37.689Z,8.40
2023-01-13T05:40:23.582Z,8.40
2023-01-13T05:43:19.996Z,8.30
2023-01-13T05:46:07.986Z,8.30
2023-01-13T05:48:40.372Z,8.40
2023-01-13T05:51:09.578Z,8.30
2023-01-13T05:53:37.230Z,8.30
2023-01-13T05:56:05.451Z,8.30
2023-01-13T05:58:32.268Z,8.30
2023-01-13T06:01:01.170Z,8.30
2023-01-13T06:03:27.995Z,8.20
2023-01-13T06:05:58.793Z,8.20
2023-01-13T06:08:26.015Z,8.20
2023-01-13T06:10:53.048Z,8.20
2023-01-13T06:13:20.216Z,8.20
2023-01-13T06:15:47.009Z,8.10
2023-01-13T06:18:13.898Z,8.10
2023-01-13T06:20:40.676Z,8.10
2023-01-13T06:23:10.669Z,8.10
2023-01-13T06:26:00.207Z,8.20
2023-01-13T06:28:27.140Z,8.20
2023-01-13T06:30:58.618Z,8.20
2023-01-13T06:33:32.807Z,8.20
2023-01-13T06:36:04.790Z,8.20
2023-01-13T06:38:36.068Z,8.20
2023-01-13T06:41:03.955Z,8.30
2023-01-13T06:43:30.743Z,8.30
2023-01-13T06:45:57.549Z,8.30
2023-01-13T06:48:32.764Z,8.40
2023-01-13T06:50:59.804Z,8.40
2023-01-13T06:53:26.541Z,8.40
2023-01-13T06:55:53.309Z,8.30
2023-01-13T06:58:20.065Z,8.40
2023-01-13T07:00:51.152Z,8.30
2023-01-13T07:03:18.960Z,8.30
2023-01-13T07:05:55.279Z,8.30
2023-01-13T07:08:23.287Z,8.20
2023-01-13T07:10:51.143Z,8.20
2023-01-13T07:13:36.769Z,8.10
2023-01-13T07:16:05.841Z,8.10
2023-01-13T07:18:34.289Z,8.00
2023-01-13T07:21:03.478Z,8.00
2023-01-13T07:23:32.224Z,8.00
2023-01-13T07:26:00.871Z,8.00
2023-01-13T07:28:29.262Z,7.90
2023-01-13T07:30:56.228Z,7.90
2023-01-13T07:33:23.499Z,7.90
2023-01-13T07:35:57.632Z,7.90
2023-01-13T07:38:24.914Z,7.80
2023-01-13T07:40:51.739Z,7.80
2023-01-13T07:43:33.932Z,7.80
2023-01-13T07:46:05.560Z,7.80
2023-01-13T07:48:34.344Z,7.80
2023-01-13T07:51:06.840Z,7.90
2023-01-13T07:53:34.718Z,7.90
2023-01-13T07:56:02.548Z,7.90
2023-01-13T07:58:30.230Z,7.80
2023-01-13T08:00:57.861Z,7.80
2023-01-13T08:03:24.952Z,7.80
2023-01-13T08:05:51.955Z,7.80
2023-01-13T08:08:19.107Z,7.80
2023-01-13T08:10:45.982Z,7.90
2023-01-13T08:13:18.214Z,8.00
2023-01-13T08:15:46.600Z,8.00
2023-01-13T08:18:13.901Z,8.00
2023-01-13T08:20:40.895Z,8.00
2023-01-13T08:23:07.781Z,8.10
2023-01-13T08:25:34.865Z,8.20
2023-01-13T08:28:01.662Z,8.20
2023-01-13T08:30:28.659Z,8.10
2023-01-13T08:32:55.514Z,8.20
2023-01-13T08:35:22.979Z,8.20
2023-01-13T08:37:50.292Z,8.20
2023-01-13T08:40:17.977Z,8.20
2023-01-13T08:42:46.494Z,8.30
2023-01-13T08:45:15.359Z,8.20
2023-01-13T08:47:42.224Z,8.20
2023-01-13T08:50:10.344Z,8.20
2023-01-13T08:52:37.359Z,8.20
2023-01-13T08:55:04.402Z,8.20
2023-01-13T08:57:31.265Z,8.30
2023-01-13T08:59:58.188Z,8.30
2023-01-13T09:02:26.342Z,8.30
2023-01-13T09:04:54.172Z,8.30
2023-01-13T09:07:21.379Z,8.30
2023-01-13T09:09:48.343Z,8.30
2023-01-13T09:12:34.804Z,8.30
2023-01-13T09:15:02.665Z,8.30
2023-01-13T09:17:29.776Z,8.30
2023-01-13T09:19:56.601Z,8.30
2023-01-13T09:22:26.931Z,8.40
2023-01-13T09:24:54.802Z,8.40
2023-01-13T09:27:22.238Z,8.40
2023-01-13T09:29:49.444Z,8.40
2023-01-13T09:32:16.362Z,8.40
2023-01-13T09:35:01.727Z,8.40
2023-01-13T09:37:34.844Z,8.50
2023-01-13T09:40:03.320Z,8.50
2023-01-13T09:42:58.785Z,8.50
2023-01-13T09:45:32.403Z,8.60
2023-01-13T09:48:13.012Z,8.60
2023-01-13T09:51:06.490Z,8.60
2023-01-13T09:53:39.457Z,8.60
2023-01-13T09:56:08.960Z,8.70
2023-01-13T09:58:35.976Z,8.70
2023-01-13T10:01:40.199Z,8.80
2023-01-13T10:04:15.394Z,8.80
2023-01-13T10:06:51.850Z,8.80
2023-01-13T10:09:30.415Z,8.90
2023-01-13T10:12:18.968Z,8.90
2023-01-13T10:14:53.700Z,8.90
2023-01-13T10:17:39.190Z,8.80
2023-01-13T10:20:08.723Z,8.90
2023-01-13T10:22:51.643Z,8.80
2023-01-13T10:25:21.560Z,8.80
2023-01-13T10:27:50.600Z,8.80
2023-01-13T10:30:31.513Z,8.80
2023-01-13T10:33:09.831Z,8.80
2023-01-13T10:35:56.596Z,8.90
2023-01-13T10:38:34.255Z,8.90
2023-01-13T10:41:09.506Z,8.90
2023-01-13T10:43:36.265Z,8.90
2023-01-13T10:46:13.400Z,8.90
2023-01-13T10:48:42.826Z,8.90
2023-01-13T10:51:19.384Z,8.90
2023-01-13T10:54:15.349Z,9.00
2023-01-13T10:56:44.661Z,9.00
2023-01-13T10:59:22.243Z,9.10
2023-01-13T11:02:02.424Z,9.10
2023-01-13T11:04:40.749Z,9.10
2023-01-13T11:07:21.218Z,9.20
2023-01-13T11:09:48.301Z,9.20
2023-01-13T11:12:37.481Z,9.30
2023-01-13T11:15:11.563Z,9.30
2023-01-13T11:17:40.704Z,9.30
2023-01-13T11:20:32.383Z,9.40
2023-01-13T11:23:03.013Z,9.40
2023-01-13T11:25:44.104Z,9.50
2023-01-13T11:28:35.731Z,9.60
2023-01-13T11:31:10.487Z,9.60
2023-01-13T11:33:47.113Z,9.60
2023-01-13T11:36:31.420Z,9.60
2023-01-13T11:39:12.541Z,9.50
2023-01-13T11:41:44.525Z,9.50
2023-01-13T11:44:27.668Z,9.40
2023-01-13T11:46:54.860Z,9.20
2023-01-13T11:49:28.210Z,8.90
2023-01-13T11:52:14.656Z,8.80
2023-01-13T11:55:11.815Z,8.60
2023-01-13T11:57:50.545Z,8.40
2023-01-13T12:00:27.929Z,8.30
2023-01-13T12:03:03.468Z,8.20
2023-01-13T12:05:59.538Z,8.10
2023-01-13T12:08:50.987Z,8.10
2023-01-13T12:12:22.648Z,8.20
2023-01-13T12:15:10.841Z,8.20
2023-01-13T12:18:17.650Z,8.30
2023-01-13T12:20:53.215Z,8.40
2023-01-13T12:23:28.265Z,8.40
2023-01-13T12:26:10.109Z,8.40
2023-01-13T12:29:07.650Z,8.40
2023-01-13T12:31:38.261Z,8.40
2023-01-13T12:34:26.797Z,8.40
2023-01-13T12:37:08.399Z,8.40
2023-01-13T12:40:14.049Z,8.30
2023-01-13T12:43:14.020Z,8.30
2023-01-13T12:45:40.863Z,8.30
2023-01-13T12:48:46.676Z,8.20
2023-01-13T12:51:24.060Z,8.20
2023-01-13T12:53:51.194Z,8.20
2023-01-13T12:56:34.864Z,8.10
2023-01-13T12:59:32.672Z,8.00
2023-01-13T13:02:26.925Z,8.00
2023-01-13T13:04:57.004Z,7.90
2023-01-13T13:07:29.808Z,7.90
2023-01-13T13:10:02.229Z,7.90
2023-01-13T13:12:50.431Z,7.80
2023-01-13T13:15:25.652Z,7.80
2023-01-13T13:18:23.734Z,7.70
2023-01-13T13:20:58.712Z,7.70
2023-01-13T13:23:37.888Z,7.70
2023-01-13T13:26:24.665Z,7.80
2023-01-13T13:29:24.974Z,7.80
2023-01-13T13:32:01.486Z,7.80
2023-01-13T13:34:48.356Z,7.80
2023-01-13T13:37:33.044Z,7.80
2023-01-13T13:40:27.419Z,7.80
2023-01-13T13:43:17.101Z,7.80
2023-01-13T13:46:10.589Z,7.90
2023-01-13T13:48:37.441Z,7.80
2023-01-13T13:51:39.144Z,7.80
2023-01-13T13:54:18.306Z,7.90
2023-01-13T13:56:47.466Z,7.90
2023-01-13T13:59:24.806Z,8.00
2023-01-13T14:02:01.463Z,7.90
2023-01-13T14:04:32.283Z,7.90
2023-01-13T14:07:02.197Z,7.90
2023-01-13T14:09:40.998Z,8.00
2023-01-13T14:12:23.302Z,8.00
2023-01-13T14:14:50.935Z,8.00
2023-01-13T14:17:28.667Z,8.10
2023-01-13T14:20:06.024Z,8.10
2023-01-13T14:22:32.937Z,8.10
2023-01-13T14:25:01.743Z,8.00
2023-01-13T14:27:29.929Z,8.00
2023-01-13T14:30:00.222Z,8.00
2023-01-13T14:32:36.598Z,8.00
2023-01-13T14:35:06.934Z,8.00
2023-01-13T14:37:38.468Z,8.00
2023-01-13T14:40:05.902Z,7.90
2023-01-13T14:42:35.308Z,7.90
2023-01-13T14:45:03.160Z,7.80
2023-01-13T14:47:33.721Z,7.70
2023-01-13T14:50:06.285Z,7.70
2023-01-13T14:52:35.902Z,7.70
2023-01-13T14:55:09.940Z,7.70
2023-01-13T14:57:39.399Z,7.60
2023-01-13T15:00:21.377Z,7.60
2023-01-13T15:02:57.345Z,7.60
2023-01-13T15:05:27.189Z,7.60
2023-01-13T15:07:59.129Z,7.60
2023-01-13T15:10:30.832Z,7.60
2023-01-13T15:12:59.780Z,7.60
2023-01-13T15:15:32.804Z,7.60
2023-01-13T15:18:00.724Z,7.60
2023-01-13T15:20:28.041Z,7.60
2023-01-13T15:22:57.774Z,7.70
2023-01-13T15:25:24.654Z,7.70
2023-01-13T15:27:52.939Z,7.70
2023-01-13T15:30:24.882Z,7.60
2023-01-13T15:32:53.641Z,7.60
2023-01-13T15:35:21.570Z,7.50
2023-01-13T15:37:49.533Z,7.40
2023-01-13T15:40:23.322Z,7.40
2023-01-13T15:43:28.482Z,7.40
2023-01-13T15:46:13.977Z,7.30
2023-01-13T15:48:40.838Z,7.30
2023-01-13T15:51:11.685Z,7.30
2023-01-13T15:53:41.887Z,7.30
2023-01-13T15:56:18.405Z,7.30
2023-01-13T15:58:45.218Z,7.30
2023-01-13T16:01:13.155Z,7.30
2023-01-13T16:03:40.013Z,7.30
2023-01-13T16:06:19.749Z,7.20
2023-01-13T16:08:46.641Z,7.20
2023-01-13T16:11:13.948Z,7.30
2023-01-13T16:13:40.824Z,7.30
2023-01-13T16:16:19.123Z,7.20
2023-01-13T16:18:46.294Z,7.20
2023-01-13T16:21:14.031Z,7.20
2023-01-13T16:23:41.391Z,7.20
2023-01-13T16:26:19.721Z,7.20
2023-01-13T16:28:46.541Z,7.20
2023-01-13T16:31:23.414Z,7.30
2023-01-13T16:33:50.609Z,7.30
2023-01-13T16:36:20.017Z,7.30
2023-01-13T16:38:47.635Z,7.30
2023-01-13T16:41:14.861Z,7.40
2023-01-13T16:43:42.070Z,7.40
2023-01-13T16:46:26.517Z,7.30
2023-01-13T16:48:55.800Z,7.30
2023-01-13T16:51:23.809Z,7.40
2023-01-13T16:53:51.319Z,7.40
2023-01-13T16:56:21.278Z,7.40
2023-01-13T16:58:48.714Z,7.40
2023-01-13T17:01:22.468Z,7.40
2023-01-13T17:03:50.178Z,7.40
2023-01-13T17:06:22.657Z,7.40
2023-01-13T17:08:49.753Z,7.40
2023-01-13T17:11:16.576Z,7.30
2023-01-13T17:13:43.388Z,7.30
2023-01-13T17:16:17.127Z,7.30
2023-01-13T17:18:43.917Z,7.30
2023-01-13T17:21:10.707Z,7.20
2023-01-13T17:23:37.516Z,7.20
2023-01-13T17:26:04.651Z,7.30
2023-01-13T17:28:31.517Z,7.20
2023-01-13T17:30:58.280Z,7.30
2023-01-13T17:33:25.090Z,7.30
2023-01-13T17:35:51.895Z,7.30
2023-01-13T17:38:18.672Z,7.30
2023-01-13T17:40:45.414Z,7.20
2023-01-13T17:43:12.216Z,7.20
2023-01-13T17:45:42.119Z,7.30
2023-01-13T17:48:09.099Z,7.30
2023-01-13T17:50:35.910Z,7.30
2023-01-13T17:53:02.671Z,7.30
2023-01-13T17:55:29.439Z,7.30
2023-01-13T17:57:56.277Z,7.30
2023-01-13T18:00:23.142Z,7.30
2023-01-13T18:02:49.963Z,7.30
2023-01-13T18:05:16.781Z,7.30
2023-01-13T18:07:43.626Z,7.30
2023-01-13T18:10:11.208Z,7.20
2023-01-13T18:12:38.171Z,7.30
2023-01-13T18:15:05.579Z,7.20
2023-01-13T18:17:32.301Z,7.30
2023-01-13T18:20:17.836Z,7.30
2023-01-13T18:23:03.259Z,7.30
2023-01-13T18:25:48.468Z,7.30
2023-01-13T18:28:15.252Z,7.30
2023-01-13T18:30:42.037Z,7.30
2023-01-13T18:33:08.861Z,7.30
2023-01-13T18:35:38.606Z,7.40
2023-01-13T18:38:05.444Z,7.40
2023-01-13T18:40:32.208Z,7.40
2023-01-13T18:42:59.315Z,7.40
2023-01-13T18:45:31.106Z,7.40
2023-01-13T18:48:00.351Z,7.40
2023-01-13T18:50:28.064Z,7.40
2023-01-13T18:52:55.612Z,7.50
2023-01-13T18:55:23.148Z,7.40
2023-01-13T18:57:51.104Z,7.50
2023-01-13T19:00:20.713Z,7.50
2023-01-13T19:02:50.451Z,7.50
2023-01-13T19:05:17.753Z,7.50
2023-01-13T19:07:50.338Z,7.60
2023-01-13T19:10:17.862Z,7.60
2023-01-13T19:12:44.588Z,7.60
2023-01-13T19:15:11.713Z,7.60
2023-01-13T19:17:38.756Z,7.60
2023-01-13T19:20:06.071Z,7.70
2023-01-13T19:22:34.824Z,7.70
2023-01-13T19:25:02.964Z,7.70
2023-01-13T19:27:30.354Z,7.80
2023-01-13T19:30:00.154Z,7.80
2023-01-13T19:32:28.031Z,7.80
2023-01-13T19:34:58.944Z,7.80
2023-01-13T19:37:30.015Z,7.80
2023-01-13T19:39:58.205Z,7.80
2023-01-13T19:42:43.936Z,7.80
2023-01-13T19:45:28.135Z,7.80
2023-01-13T19:47:55.818Z,7.80
2023-01-13T19:50:22.873Z,7.80
2023-01-13T19:52:49.707Z,7.80
2023-01-13T19:55:16.647Z,7.80
2023-01-13T19:57:43.474Z,7.80
2023-01-13T20:00:13.946Z,7.80
2023-01-13T20:02:47.505Z,7.80
2023-01-13T20:05:20.861Z,7.80
2023-01-13T20:07:48.776Z,7.80
2023-01-13T20:10:17.557Z,7.80
2023-01-13T20:12:44.428Z,7.90
2023-01-13T20:15:11.589Z,7.90
2023-01-13T20:17:38.458Z,7.90
2023-01-13T20:20:05.620Z,8.00
2023-01-13T20:22:32.469Z,8.00
2023-01-13T20:24:59.255Z,8.10
2023-01-13T20:27:26.065Z,8.00
2023-01-13T20:29:52.840Z,8.00
2023-01-13T20:32:19.600Z,7.90
2023-01-13T20:34:46.543Z,7.90
2023-01-13T20:37:13.418Z,7.80
2023-01-13T20:39:43.941Z,7.80
2023-01-13T20:42:29.234Z,7.90
2023-01-13T20:45:00.032Z,7.80
2023-01-13T20:47:28.553Z,7.90
2023-01-13T20:49:55.356Z,7.90
2023-01-13T20:52:22.211Z,7.90
2023-01-13T20:54:49.095Z,7.90
2023-01-13T20:57:16.060Z,7.90
2023-01-13T20:59:43.007Z,7.90
2023-01-13T21:02:15.536Z,7.90
2023-01-13T21:04:42.990Z,7.90
2023-01-13T21:07:10.359Z,7.90
2023-01-13T21:09:37.218Z,7.90
2023-01-13T21:12:23.498Z,7.90
2023-01-13T21:15:08.832Z,7.90
2023-01-13T21:17:54.225Z,7.90
2023-01-13T21:20:21.027Z,7.90
2023-01-13T21:22:49.118Z,7.90
2023-01-13T21:25:17.420Z,7.90
2023-01-13T21:27:44.650Z,7.90
2023-01-13T21:30:15.714Z,7.90
2023-01-13T21:32:44.016Z,7.90
2023-01-13T21:35:11.656Z,7.90
2023-01-13T21:37:39.593Z,7.90
2023-01-13T21:40:08.350Z,7.90
2023-01-13T21:42:53.799Z,7.90
2023-01-13T21:45:39.279Z,7.80
2023-01-13T21:48:07.057Z,7.80
2023-01-13T21:50:33.923Z,7.80
2023-01-13T21:53:00.774Z,7.70
2023-01-13T21:55:28.286Z,7.70
2023-01-13T21:57:59.343Z,7.70
2023-01-13T22:00:30.279Z,7.70
2023-01-13T22:02:58.382Z,7.70
2023-01-13T22:05:26.028Z,7.80
2023-01-13T22:07:53.511Z,7.80
2023-01-13T22:10:24.333Z,7.70
2023-01-13T22:12:56.083Z,7.80
2023-01-13T22:15:26.807Z,7.80
2023-01-13T22:17:55.463Z,7.80
2023-01-13T22:20:22.773Z,7.70
2023-01-13T22:22:49.963Z,7.80
2023-01-13T22:25:19.873Z,7.80
2023-01-13T22:27:48.203Z,7.80
2023-01-13T22:30:21.655Z,7.70
2023-01-13T22:32:48.774Z,7.70
2023-01-13T22:35:16.284Z,7.60
2023-01-13T22:37:43.046Z,7.60
2023-01-13T22:40:11.797Z,7.50
2023-01-13T22:42:42.718Z,7.50
2023-01-13T22:45:13.976Z,7.50
2023-01-13T22:47:41.244Z,7.60
2023-01-13T22:50:09.165Z,7.60
2023-01-13T22:52:36.080Z,7.50
2023-01-13T22:55:03.435Z,7.50
2023-01-13T22:57:36.009Z,7.60
2023-01-13T23:00:10.283Z,7.60
2023-01-13T23:02:38.338Z,7.60
2023-01-13T23:05:05.495Z,7.60
2023-01-13T23:07:32.355Z,7.60
2023-01-13T23:09:59.807Z,7.70
2023-01-13T23:12:26.661Z,7.70
2023-01-13T23:14:54.433Z,7.70
2023-01-13T23:17:21.272Z,7.70
2023-01-13T23:19:48.069Z,7.70
2023-01-13T23:22:15.545Z,7.70
2023-01-13T23:24:42.257Z,7.70
2023-01-13T23:27:09.047Z,7.70
2023-01-13T23:29:35.870Z,7.80
2023-01-13T23:32:02.658Z,7.70
2023-01-13T23:34:29.479Z,7.70
2023-01-13T23:36:56.271Z,7.70
2023-01-13T23:39:24.464Z,7.70
2023-01-13T23:41:51.421Z,7.70
2023-01-13T23:44:18.270Z,7.80
2023-01-13T23:46:45.102Z,7.70
2023-01-13T23:49:11.896Z,7.80
2023-01-13T23:51:38.940Z,7.80
2023-01-13T23:54:05.744Z,7.80
2023-01-13T23:56:32.885Z,7.80
2023-01-13T23:58:59.664Z,7.80
